METAR Data
IDs: Format: Raw Decoded Include TAF

Data at: 0354 UTC 20 Oct 2018

PAKN 200312Z 25013KT 10SM SCT021 08/03 A2930 RMK AO2 T00780033
PAKN 200254Z 25016G21KT 10SM BKN022 08/03 A2929 RMK AO2 SLP919 T00780033 53014
PAKN 200154Z 25013G24KT 10SM BKN021 09/04 A2928 RMK AO2 PK WND 26028/0119 SLP914 T00890039
PAKN 200145Z 26019G25KT 10SM BKN022 09/04 A2928 RMK AO2 PK WND 26028/0119 T00940039
PAKN 200054Z 26016G25KT 10SM SCT040 10/04 A2926 RMK AO2 PK WND 26026/0044 SLP908 T01000044
PAKN 192354Z 28012G19KT 10SM CLR 11/04 A2925 RMK AO2 SLP905 T01060044 10106 20017 53003
PAKN 192254Z 27017G24KT 10SM CLR 09/04 A2924 RMK AO2 SLP903 T00940044
PAKN 192154Z 27017G24KT 10SM CLR 09/04 A2924 RMK AO2 SLP900 T00940044
PAKN 192054Z 28017G22KT 10SM CLR 09/04 A2924 RMK AO2 SLP903 T00890039 58004
PAKN 191954Z 30008KT 10SM CLR 08/03 A2926 RMK AO2 SLP908 T00780033
PAKN 191854Z 30007KT 10SM CLR 04/02 A2926 RMK AO2 SLP909 T00390022
PAKN 191754Z 31006KT 10SM CLR 02/01 A2926 RMK AO2 SLP908 60001 T00170006 10061 20017 56018
PAKN 191654Z 34007KT 10SM CLR 02/01 A2927 RMK AO2 SLP910 T00220006
PAKN 191554Z 34006KT 10SM BKN090 03/01 A2929 RMK AO2 SLP918 T00280011
PAKN 191454Z 33004KT 10SM BKN075 OVC090 04/03 A2931 RMK AO2 RAE03 SLP925 P0000 60001 T00440028 57032
PAKN 191354Z 35008KT 10SM -RA OVC060 06/04 A2935 RMK AO2 RAB21E31B51 SLP937 P0000 T00560039
PAKN 191254Z 35006KT 10SM FEW055 OVC075 06/04 A2937 RMK AO2 RAE45 SLP946 P0001 T00560039
PAKN 191154Z 02008KT 10SM -RA OVC050 06/04 A2941 RMK AO2 SLP958 P0000 60000 T00610039 10061 20022 56025
PAKN 191054Z 02007KT 10SM -RA FEW045 SCT065 BKN080 06/03 A2943 RMK AO2 RAB0959E08B34 SLP965 P0000 T00610033
PAKN 190954Z 34005KT 10SM SCT080 BKN120 04/02 A2945 RMK AO2 SLP972 T00390017
PAKN 190854Z 36006KT 10SM SCT085 BKN110 03/01 A2948 RMK AO2 SLP982 T00330006 401390022 57022
PAKN 190754Z 01004KT 10SM SCT090 03/01 A2950 RMK AO2 SLP991 T00280006
PAKN 190654Z 36005KT 10SM SCT090 04/02 A2952 RMK AO2 SLP996 T00390017
PAKN 190554Z 10003KT 10SM SCT090 05/03 A2955 RMK AO2 SLP005 T00500028 10139 20050 56013
PAKN 190454Z 07003KT 10SM BKN090 08/04 A2956 RMK AO2 SLP008 T00780039
PAKN 190354Z 12003KT 10SM BKN070 09/04 A2957 RMK AO2 SLP013 T00890044
PAKN 190254Z 00000KT 10SM SCT045 OVC065 10/03 A2958 RMK AO2 SLP017 T01000033 56009
PAKN 190154Z 14005KT 10SM BKN042 BKN055 12/03 A2959 RMK AO2 SLP021 T01170033
PAKN 190054Z 09005KT 10SM SCT045 OVC060 13/03 A2960 RMK AO2 SLP023 T01330028
PAKN 182354Z 08003KT 10SM BKN050 13/03 A2961 RMK AO2 SLP026 T01280028 10128 20056 58010
PAKN 182254Z 15005KT 10SM OVC050 12/03 A2963 RMK AO2 SLP032 T01220028
PAKN 182154Z 17006KT 10SM CLR 12/03 A2964 RMK AO2 SLP035 T01220028
PAKN 182054Z 13006KT 10SM FEW090 12/03 A2964 RMK AO2 SLP036 T01170033 50002
PAKN 181954Z 11006KT 10SM CLR 11/03 A2964 RMK AO2 SLP038 T01060033
PAKN 181854Z 08006KT 10SM FEW075 09/03 A2964 RMK AO2 SLP037 T00890033
PAKN 181754Z 08005KT 10SM SCT075 05/03 A2963 RMK AO2 SLP034 T00500028 10083 20044 53006
PAKN 181654Z 13006KT 10SM FEW048 BKN070 06/02 A2963 RMK AO2 SLP032 T00560022